createdAt,value
2023-01-31T00:01:30.964Z,0
2023-01-31T00:03:39.893Z,0
2023-01-31T00:05:46.940Z,0
2023-01-31T00:06:49.744Z,0
2023-01-31T00:08:56.920Z,0
2023-01-31T00:11:03.050Z,0
2023-01-31T00:13:09.316Z,0
2023-01-31T00:14:12.882Z,0
2023-01-31T00:16:19.440Z,0
2023-01-31T00:18:26.196Z,0
2023-01-31T00:20:33.094Z,0
2023-01-31T00:21:39.221Z,0
2023-01-31T00:23:46.070Z,0
2023-01-31T00:25:51.953Z,0
2023-01-31T00:27:58.134Z,0
2023-01-31T00:29:01.409Z,0
2023-01-31T00:30:04.483Z,0
2023-01-31T00:31:08.097Z,0
2023-01-31T00:33:14.895Z,0
2023-01-31T00:34:18.532Z,0
2023-01-31T00:35:23.500Z,0
2023-01-31T00:36:26.945Z,0
2023-01-31T00:38:34.628Z,0
2023-01-31T00:40:42.775Z,0
2023-01-31T00:41:45.587Z,0
2023-01-31T00:43:51.324Z,0
2023-01-31T00:45:57.802Z,0
2023-01-31T00:48:03.864Z,0
2023-01-31T00:49:06.975Z,0
2023-01-31T00:51:13.443Z,0
2023-01-31T00:53:20.561Z,0
2023-01-31T00:54:39.422Z,0
2023-01-31T00:55:43.184Z,0
2023-01-31T00:57:48.624Z,0
2023-01-31T00:58:52.334Z,0
2023-01-31T01:00:58.543Z,0
2023-01-31T01:03:06.316Z,0
2023-01-31T01:05:12.793Z,0
2023-01-31T01:06:15.270Z,0
2023-01-31T01:08:22.045Z,0
2023-01-31T01:10:28.453Z,0
2023-01-31T01:12:36.974Z,0
2023-01-31T01:13:39.993Z,0
2023-01-31T01:15:46.662Z,0
2023-01-31T01:17:53.657Z,0
2023-01-31T01:18:56.725Z,0
2023-01-31T01:21:02.595Z,0
2023-01-31T01:23:07.958Z,0
2023-01-31T01:25:15.529Z,0
2023-01-31T01:26:18.790Z,0
2023-01-31T01:28:25.335Z,0
2023-01-31T01:30:32.668Z,0
2023-01-31T01:32:41.518Z,0
2023-01-31T01:33:44.937Z,0
2023-01-31T01:35:51.709Z,0
2023-01-31T01:37:57.961Z,0
2023-01-31T01:40:04.626Z,0
2023-01-31T01:41:07.730Z,0
2023-01-31T01:42:11.024Z,0
2023-01-31T01:43:14.509Z,0
2023-01-31T01:44:17.503Z,0
2023-01-31T01:45:25.362Z,0
2023-01-31T01:46:29.776Z,0
2023-01-31T01:47:33.593Z,0
2023-01-31T01:48:37.173Z,0
2023-01-31T01:49:40.250Z,0
2023-01-31T01:51:46.119Z,0
2023-01-31T01:53:52.234Z,0
2023-01-31T01:54:55.615Z,0
2023-01-31T01:57:02.883Z,0
2023-01-31T01:59:09.170Z,0
2023-01-31T02:00:13.236Z,0
2023-01-31T02:02:20.264Z,0
2023-01-31T02:04:27.244Z,0
2023-01-31T02:06:35.984Z,0
2023-01-31T02:07:39.606Z,0
2023-01-31T02:09:45.453Z,0
2023-01-31T02:11:52.666Z,0
2023-01-31T02:12:56.096Z,0
2023-01-31T02:13:59.473Z,0
2023-01-31T02:15:02.758Z,0
2023-01-31T02:17:08.288Z,0
2023-01-31T02:18:11.424Z,0
2023-01-31T02:19:14.424Z,0
2023-01-31T02:20:17.807Z,0
2023-01-31T02:21:20.262Z,0
2023-01-31T02:23:27.241Z,0
2023-01-31T02:25:32.714Z,0
2023-01-31T02:26:35.859Z,0
2023-01-31T02:28:42.571Z,0
2023-01-31T02:29:45.908Z,0
2023-01-31T02:31:53.126Z,0
2023-01-31T02:33:58.837Z,0
2023-01-31T02:35:01.889Z,0
2023-01-31T02:37:08.042Z,0
2023-01-31T02:38:10.782Z,0
2023-01-31T02:40:17.279Z,0
2023-01-31T02:41:20.572Z,0
2023-01-31T02:43:29.035Z,0
2023-01-31T02:45:34.598Z,0
2023-01-31T02:46:39.024Z,0
2023-01-31T02:48:44.326Z,0
2023-01-31T02:50:50.042Z,0
2023-01-31T02:51:53.127Z,0
2023-01-31T02:53:58.652Z,0
2023-01-31T02:56:05.483Z,0
2023-01-31T02:57:08.878Z,0
2023-01-31T02:59:14.934Z,0
2023-01-31T03:01:21.861Z,0
2023-01-31T03:03:29.070Z,0
2023-01-31T03:04:31.019Z,0
2023-01-31T03:06:37.760Z,0
2023-01-31T03:08:43.764Z,0
2023-01-31T03:09:46.844Z,0
2023-01-31T03:11:52.262Z,0
2023-01-31T03:12:55.385Z,0
2023-01-31T03:13:58.209Z,0
2023-01-31T03:15:01.678Z,0
2023-01-31T03:16:05.099Z,0
2023-01-31T03:18:11.742Z,0
2023-01-31T03:20:19.627Z,0
2023-01-31T03:21:22.575Z,0
2023-01-31T03:23:28.490Z,0
2023-01-31T03:25:34.657Z,0
2023-01-31T03:27:43.040Z,0
2023-01-31T03:28:45.830Z,0
2023-01-31T03:30:53.365Z,0
2023-01-31T03:33:01.645Z,0
2023-01-31T03:34:05.159Z,0
2023-01-31T03:35:08.522Z,0
2023-01-31T03:36:11.380Z,0
2023-01-31T03:37:13.844Z,0
2023-01-31T03:38:18.834Z,0
2023-01-31T03:39:21.921Z,0
2023-01-31T03:41:28.617Z,0
2023-01-31T03:42:31.773Z,0
2023-01-31T03:44:38.480Z,0
2023-01-31T03:46:44.751Z,0
2023-01-31T03:47:48.749Z,0
2023-01-31T03:49:55.628Z,0
2023-01-31T03:52:01.290Z,0
2023-01-31T03:53:04.293Z,0
2023-01-31T03:54:07.712Z,0
2023-01-31T03:55:10.995Z,0
2023-01-31T03:57:18.159Z,0
2023-01-31T03:58:21.271Z,0
2023-01-31T04:00:27.442Z,0
2023-01-31T04:02:35.351Z,0
2023-01-31T04:03:38.782Z,0
2023-01-31T04:04:42.243Z,0
2023-01-31T04:05:45.991Z,0
2023-01-31T04:07:51.844Z,0
2023-01-31T04:08:55.532Z,0
2023-01-31T04:09:58.629Z,0
2023-01-31T04:11:01.644Z,0
2023-01-31T04:13:07.955Z,0
2023-01-31T04:15:15.952Z,0
2023-01-31T04:16:19.389Z,0
2023-01-31T04:17:22.486Z,0
2023-01-31T04:18:25.975Z,0
2023-01-31T04:20:33.248Z,0
2023-01-31T04:22:40.470Z,0
2023-01-31T04:23:43.198Z,0
2023-01-31T04:25:49.221Z,0
2023-01-31T04:27:55.422Z,0
2023-01-31T04:30:00.702Z,0
2023-01-31T04:31:05.558Z,0
2023-01-31T04:33:12.994Z,0
2023-01-31T04:35:22.407Z,0
2023-01-31T04:37:28.967Z,0
2023-01-31T04:38:33.131Z,0
2023-01-31T04:40:40.034Z,0
2023-01-31T04:42:46.517Z,0
2023-01-31T04:44:52.107Z,0
2023-01-31T04:45:55.182Z,0
2023-01-31T04:48:02.103Z,0
2023-01-31T04:50:10.370Z,0
2023-01-31T04:52:16.725Z,0
2023-01-31T04:53:20.242Z,0
2023-01-31T04:54:23.144Z,0
2023-01-31T04:55:26.287Z,0
2023-01-31T04:57:34.225Z,0
2023-01-31T04:59:41.136Z,0
2023-01-31T05:00:44.510Z,0
2023-01-31T05:01:47.870Z,0
2023-01-31T05:02:50.541Z,0
2023-01-31T05:04:57.019Z,0
2023-01-31T05:07:03.885Z,0
2023-01-31T05:08:08.406Z,0
2023-01-31T05:10:15.042Z,0
2023-01-31T05:12:20.902Z,0
2023-01-31T05:13:24.698Z,0
2023-01-31T05:14:27.787Z,0
2023-01-31T05:15:31.423Z,0
2023-01-31T05:17:38.218Z,0
2023-01-31T05:18:41.674Z,0
2023-01-31T05:19:44.759Z,0
2023-01-31T05:20:47.789Z,0
2023-01-31T05:22:55.677Z,0
2023-01-31T05:25:02.190Z,0
2023-01-31T05:26:05.535Z,0
2023-01-31T05:28:12.931Z,0
2023-01-31T05:30:19.942Z,0
2023-01-31T05:32:27.124Z,0
2023-01-31T05:33:33.542Z,0
2023-01-31T05:35:40.285Z,0
2023-01-31T05:37:47.265Z,0
2023-01-31T05:39:53.202Z,0
2023-01-31T05:40:56.663Z,0
2023-01-31T05:43:04.272Z,0
2023-01-31T05:45:10.442Z,0
2023-01-31T05:47:17.319Z,0
2023-01-31T05:48:20.356Z,0
2023-01-31T05:50:27.428Z,0
2023-01-31T05:52:34.410Z,0
2023-01-31T05:54:41.432Z,0
2023-01-31T05:55:44.254Z,0
2023-01-31T05:56:47.994Z,0
2023-01-31T05:57:51.300Z,0
2023-01-31T05:59:56.708Z,0
2023-01-31T06:00:59.869Z,0
2023-01-31T06:02:04.507Z,0
2023-01-31T06:03:07.825Z,0
2023-01-31T06:05:14.106Z,0
2023-01-31T06:07:20.531Z,0
2023-01-31T06:08:24.167Z,0
2023-01-31T06:09:27.689Z,0
2023-01-31T06:10:31.994Z,0
2023-01-31T06:12:38.901Z,0
2023-01-31T06:14:46.061Z,0
2023-01-31T06:15:49.144Z,0
2023-01-31T06:17:55.708Z,0
2023-01-31T06:20:02.696Z,0
2023-01-31T06:22:09.435Z,0
2023-01-31T06:23:12.784Z,0
2023-01-31T06:25:21.171Z,0
2023-01-31T06:27:27.957Z,0
2023-01-31T06:29:37.019Z,0
2023-01-31T06:30:41.162Z,0
2023-01-31T06:32:48.384Z,0
2023-01-31T06:34:53.855Z,0
2023-01-31T06:37:00.416Z,0
2023-01-31T06:38:04.078Z,0
2023-01-31T06:39:07.800Z,0
2023-01-31T06:40:10.943Z,0
2023-01-31T06:42:17.908Z,0
2023-01-31T06:43:20.443Z,0
2023-01-31T06:44:26.698Z,0
2023-01-31T06:45:31.109Z,0
2023-01-31T06:47:38.242Z,0
2023-01-31T06:49:44.563Z,0
2023-01-31T06:50:47.650Z,0
2023-01-31T06:51:51.308Z,0
2023-01-31T06:52:55.349Z,0
2023-01-31T06:55:02.117Z,0
2023-01-31T06:57:09.008Z,1
2023-01-31T06:58:11.740Z,1
2023-01-31T07:00:18.139Z,1
2023-01-31T07:02:24.868Z,1
2023-01-31T07:04:32.774Z,1
2023-01-31T07:05:36.611Z,1
2023-01-31T07:07:44.149Z,1
2023-01-31T07:09:50.401Z,1
2023-01-31T07:11:56.893Z,2
2023-01-31T07:13:00.377Z,2
2023-01-31T07:15:06.831Z,2
2023-01-31T07:17:15.108Z,3
2023-01-31T07:19:21.535Z,3
2023-01-31T07:20:24.420Z,3
2023-01-31T07:21:27.707Z,3
2023-01-31T07:22:32.830Z,2
2023-01-31T07:24:39.444Z,3
2023-01-31T07:25:43.433Z,3
2023-01-31T07:26:47.439Z,2
2023-01-31T07:27:50.498Z,2
2023-01-31T07:29:57.066Z,2
2023-01-31T07:31:00.749Z,3
2023-01-31T07:33:07.716Z,3
2023-01-31T07:35:13.420Z,5
2023-01-31T07:37:18.923Z,10
2023-01-31T07:38:22.647Z,10
2023-01-31T07:40:29.973Z,8
2023-01-31T07:42:37.579Z,12
2023-01-31T07:44:43.926Z,13
2023-01-31T07:45:47.941Z,14
2023-01-31T07:47:54.790Z,12
2023-01-31T07:50:02.248Z,14
2023-01-31T07:52:11.167Z,14
2023-01-31T07:53:14.434Z,14
2023-01-31T07:55:23.304Z,14
2023-01-31T07:57:29.743Z,20
2023-01-31T07:58:34.020Z,23
2023-01-31T08:00:40.154Z,24
2023-01-31T08:02:48.212Z,23
2023-01-31T08:04:55.732Z,26
2023-01-31T08:05:58.860Z,26
2023-01-31T08:08:05.687Z,26
2023-01-31T08:10:12.225Z,24
2023-01-31T08:12:18.757Z,22
2023-01-31T08:13:21.762Z,24
2023-01-31T08:15:28.616Z,21
2023-01-31T08:17:37.407Z,17
2023-01-31T08:19:45.442Z,12
2023-01-31T08:20:48.292Z,15
2023-01-31T08:22:54.813Z,21
2023-01-31T08:25:01.990Z,16
2023-01-31T08:27:08.427Z,18
2023-01-31T08:28:11.865Z,19
2023-01-31T08:30:18.597Z,21
2023-01-31T08:32:26.573Z,23
2023-01-31T08:33:31.506Z,25
2023-01-31T08:34:34.932Z,30
2023-01-31T08:35:38.117Z,35
2023-01-31T08:37:45.725Z,37
2023-01-31T08:38:49.703Z,33
2023-01-31T08:39:52.302Z,40
2023-01-31T08:40:55.715Z,42
2023-01-31T08:43:01.586Z,29
2023-01-31T08:44:06.787Z,26
2023-01-31T08:45:10.566Z,26
2023-01-31T08:46:13.868Z,24
2023-01-31T08:48:20.666Z,17
2023-01-31T08:50:32.751Z,18
2023-01-31T08:51:36.956Z,18
2023-01-31T08:53:43.473Z,23
2023-01-31T08:55:51.423Z,22
2023-01-31T08:58:02.028Z,18
2023-01-31T08:59:05.401Z,17
2023-01-31T09:00:08.868Z,18
2023-01-31T09:01:12.242Z,17
2023-01-31T09:03:18.719Z,18
2023-01-31T09:04:22.812Z,20
2023-01-31T09:05:26.199Z,22
2023-01-31T09:06:31.055Z,25
2023-01-31T09:08:38.842Z,27
2023-01-31T09:10:46.310Z,16
2023-01-31T09:11:49.415Z,13
2023-01-31T09:13:56.142Z,11
2023-01-31T09:16:03.231Z,15
2023-01-31T09:18:09.887Z,18
2023-01-31T09:19:12.329Z,21
2023-01-31T09:21:19.102Z,23
2023-01-31T09:23:26.358Z,26
2023-01-31T09:25:51.133Z,24
2023-01-31T09:27:58.181Z,18
2023-01-31T09:29:01.360Z,18
2023-01-31T09:31:09.427Z,20
2023-01-31T09:33:16.582Z,28
2023-01-31T09:35:24.657Z,34
2023-01-31T09:36:27.751Z,35
2023-01-31T09:37:33.320Z,33
2023-01-31T09:38:38.057Z,46
2023-01-31T09:40:44.375Z,50
2023-01-31T09:41:47.834Z,40
2023-01-31T09:43:54.962Z,51
2023-01-31T09:46:01.912Z,86
2023-01-31T09:47:05.605Z,114
2023-01-31T09:49:12.329Z,78
2023-01-31T09:50:15.687Z,61
2023-01-31T09:52:22.728Z,44
2023-01-31T09:54:33.078Z,55
2023-01-31T09:56:40.238Z,50
2023-01-31T09:57:43.884Z,45
2023-01-31T09:59:50.366Z,51
2023-01-31T10:00:53.603Z,50
2023-01-31T10:03:03.767Z,51
2023-01-31T10:04:07.403Z,50
2023-01-31T10:05:10.875Z,54
2023-01-31T10:06:14.336Z,51
2023-01-31T10:08:21.609Z,36
2023-01-31T10:09:25.257Z,35
2023-01-31T10:11:34.138Z,26
2023-01-31T10:13:41.745Z,28
2023-01-31T10:14:45.005Z,31
2023-01-31T10:16:51.179Z,24
2023-01-31T10:18:57.411Z,26
2023-01-31T10:19:59.874Z,28
2023-01-31T10:22:10.159Z,23
2023-01-31T10:24:17.364Z,18
2023-01-31T10:25:20.972Z,18
2023-01-31T10:27:30.417Z,18
2023-01-31T10:29:38.204Z,20
2023-01-31T10:30:41.780Z,19
2023-01-31T10:31:47.084Z,18
2023-01-31T10:32:50.510Z,20
2023-01-31T10:34:56.845Z,20
2023-01-31T10:35:59.907Z,19
2023-01-31T10:38:06.917Z,21
2023-01-31T10:39:11.139Z,16
2023-01-31T10:41:17.967Z,20
2023-01-31T10:43:24.557Z,20
2023-01-31T10:44:28.810Z,21
2023-01-31T10:46:37.688Z,25
2023-01-31T10:48:49.774Z,33
2023-01-31T10:49:52.509Z,28
2023-01-31T10:50:56.035Z,25
2023-01-31T10:51:59.261Z,21
2023-01-31T10:53:02.912Z,20
2023-01-31T10:54:06.043Z,16
2023-01-31T10:55:09.549Z,14
2023-01-31T10:57:16.193Z,17
2023-01-31T10:58:20.216Z,21
2023-01-31T10:59:23.495Z,28
2023-01-31T11:00:26.651Z,29
2023-01-31T11:02:34.875Z,30
2023-01-31T11:04:41.055Z,27
2023-01-31T11:05:45.086Z,21
2023-01-31T11:07:52.025Z,23
2023-01-31T11:09:57.309Z,16
2023-01-31T11:11:01.152Z,15
2023-01-31T11:13:07.629Z,16
2023-01-31T11:15:14.477Z,19
2023-01-31T11:17:21.490Z,35
2023-01-31T11:18:24.604Z,35
2023-01-31T11:20:31.131Z,23
2023-01-31T11:22:38.359Z,17
2023-01-31T11:23:41.795Z,15
2023-01-31T11:24:45.456Z,17
2023-01-31T11:25:49.124Z,14
2023-01-31T11:27:56.063Z,12
2023-01-31T11:28:59.273Z,14
2023-01-31T11:30:03.421Z,17
2023-01-31T11:31:07.265Z,21
2023-01-31T11:33:13.793Z,21
2023-01-31T11:34:17.206Z,22
2023-01-31T11:36:24.033Z,20
2023-01-31T11:38:31.191Z,21
2023-01-31T11:39:34.598Z,19
2023-01-31T11:41:41.697Z,20
2023-01-31T11:43:48.409Z,16
2023-01-31T11:44:52.167Z,15
2023-01-31T11:46:58.925Z,16
2023-01-31T11:49:05.416Z,14
2023-01-31T11:50:08.826Z,14
2023-01-31T11:52:15.406Z,14
2023-01-31T11:54:22.587Z,19
2023-01-31T11:55:25.828Z,20
2023-01-31T11:57:32.504Z,22
2023-01-31T11:59:40.057Z,25
2023-01-31T12:00:42.775Z,24
2023-01-31T12:02:49.331Z,27
2023-01-31T12:04:07.022Z,23
2023-01-31T12:05:10.430Z,24
2023-01-31T12:07:16.804Z,24
2023-01-31T12:08:20.824Z,28
2023-01-31T12:10:27.349Z,27
2023-01-31T12:12:34.821Z,29
2023-01-31T12:13:37.955Z,28
2023-01-31T12:15:44.140Z,27
2023-01-31T12:17:51.611Z,26
2023-01-31T12:18:55.086Z,29
2023-01-31T12:21:01.232Z,29
2023-01-31T12:23:07.981Z,24
2023-01-31T12:24:11.498Z,24
2023-01-31T12:26:19.040Z,22
2023-01-31T12:27:22.382Z,24
2023-01-31T12:28:25.870Z,22
2023-01-31T12:29:29.207Z,27
2023-01-31T12:30:33.735Z,25
2023-01-31T12:31:37.706Z,27
2023-01-31T12:32:41.135Z,26
2023-01-31T12:33:44.941Z,24
2023-01-31T12:35:11.282Z,23
2023-01-31T12:36:14.657Z,24
2023-01-31T12:38:21.450Z,25
2023-01-31T12:40:32.688Z,22
2023-01-31T12:41:36.539Z,20
2023-01-31T12:43:43.409Z,21
2023-01-31T12:45:50.219Z,23
2023-01-31T12:47:13.551Z,21
2023-01-31T12:48:16.723Z,15
2023-01-31T12:49:20.620Z,18
2023-01-31T12:51:27.247Z,18
2023-01-31T12:52:30.392Z,20
2023-01-31T12:53:34.430Z,18
2023-01-31T12:54:38.103Z,20
2023-01-31T12:56:46.488Z,20
2023-01-31T12:57:49.891Z,22
2023-01-31T12:59:18.278Z,18
2023-01-31T13:00:21.356Z,19
2023-01-31T13:02:29.286Z,23
2023-01-31T13:03:33.138Z,22
2023-01-31T13:04:36.899Z,23
2023-01-31T13:05:40.253Z,22
2023-01-31T13:07:48.327Z,22
2023-01-31T13:09:10.617Z,20
2023-01-31T13:10:14.385Z,19
2023-01-31T13:11:18.104Z,19
2023-01-31T13:13:25.219Z,19
2023-01-31T13:15:31.635Z,21
2023-01-31T13:16:35.794Z,22
2023-01-31T13:18:41.680Z,20
2023-01-31T13:20:52.151Z,21
2023-01-31T13:21:56.276Z,23
2023-01-31T13:24:03.745Z,22
2023-01-31T13:25:07.139Z,19
2023-01-31T13:27:13.944Z,20
2023-01-31T13:28:17.978Z,19
2023-01-31T13:29:21.077Z,21
2023-01-31T13:30:24.539Z,20
2023-01-31T13:32:33.601Z,20
2023-01-31T13:33:37.064Z,17
2023-01-31T13:35:45.459Z,14
2023-01-31T13:37:53.818Z,14
2023-01-31T13:38:57.888Z,13
2023-01-31T13:41:04.149Z,13
2023-01-31T13:43:11.264Z,14
2023-01-31T13:44:14.980Z,11
2023-01-31T13:45:19.263Z,11
2023-01-31T13:46:23.434Z,10
2023-01-31T13:48:30.305Z,8
2023-01-31T13:49:33.797Z,9
2023-01-31T13:50:37.855Z,6
2023-01-31T13:51:41.675Z,6
2023-01-31T13:53:47.604Z,7
2023-01-31T13:54:50.448Z,8
2023-01-31T13:56:56.388Z,8
2023-01-31T13:59:05.428Z,11
2023-01-31T14:00:10.350Z,14
2023-01-31T14:02:18.769Z,14
2023-01-31T14:04:27.517Z,12
2023-01-31T14:05:32.056Z,10
2023-01-31T14:07:40.696Z,10
2023-01-31T14:09:48.292Z,11
2023-01-31T14:10:54.109Z,8
2023-01-31T14:13:00.502Z,8
2023-01-31T14:14:03.231Z,8
2023-01-31T14:15:06.869Z,9
2023-01-31T14:16:10.817Z,10
2023-01-31T14:18:16.692Z,13
2023-01-31T14:20:22.698Z,8
2023-01-31T14:21:26.360Z,10
2023-01-31T14:23:33.703Z,11
2023-01-31T14:24:37.006Z,10
2023-01-31T14:26:43.934Z,10
2023-01-31T14:28:50.183Z,8
2023-01-31T14:29:53.860Z,6
2023-01-31T14:32:00.412Z,7
2023-01-31T14:34:06.680Z,9
2023-01-31T14:35:10.372Z,12
2023-01-31T14:36:14.588Z,11
2023-01-31T14:37:17.401Z,16
2023-01-31T14:39:24.230Z,17
2023-01-31T14:40:27.342Z,12
2023-01-31T14:42:35.787Z,15
2023-01-31T14:44:42.499Z,13
2023-01-31T14:45:45.883Z,16
2023-01-31T14:47:58.523Z,13
2023-01-31T14:49:07.667Z,14
2023-01-31T14:50:10.894Z,13
2023-01-31T14:51:13.658Z,16
2023-01-31T14:53:20.798Z,13
2023-01-31T14:55:27.723Z,8
2023-01-31T14:56:30.981Z,9
2023-01-31T14:58:36.912Z,7
2023-01-31T15:00:43.683Z,8
2023-01-31T15:01:47.076Z,8
2023-01-31T15:02:51.536Z,10
2023-01-31T15:03:55.006Z,8
2023-01-31T15:06:01.820Z,6
2023-01-31T15:08:07.971Z,6
2023-01-31T15:09:11.239Z,6
2023-01-31T15:11:44.140Z,4
2023-01-31T15:12:47.786Z,4
2023-01-31T15:13:50.968Z,3
2023-01-31T15:15:57.391Z,4
2023-01-31T15:17:00.576Z,4
2023-01-31T15:19:08.169Z,3
2023-01-31T15:20:11.671Z,2
2023-01-31T15:21:15.277Z,3
2023-01-31T15:22:18.324Z,4
2023-01-31T15:24:27.022Z,9
2023-01-31T15:25:30.111Z,10
2023-01-31T15:27:36.215Z,8
2023-01-31T15:29:43.260Z,4
2023-01-31T15:31:50.830Z,4
2023-01-31T15:32:54.015Z,2
2023-01-31T15:35:01.470Z,3
2023-01-31T15:37:07.100Z,2
2023-01-31T15:38:10.788Z,2
2023-01-31T15:40:18.311Z,1
2023-01-31T15:41:21.440Z,1
2023-01-31T15:42:24.998Z,1
2023-01-31T15:43:28.396Z,1
2023-01-31T15:45:34.658Z,1
2023-01-31T15:46:38.075Z,1
2023-01-31T15:48:44.752Z,0
2023-01-31T15:50:51.105Z,0
2023-01-31T15:51:54.383Z,0
2023-01-31T15:54:00.430Z,0
2023-01-31T15:55:04.283Z,0
2023-01-31T15:57:09.940Z,0
2023-01-31T15:59:16.613Z,0
2023-01-31T16:00:20.314Z,0
2023-01-31T16:01:23.904Z,0
2023-01-31T16:02:28.105Z,0
2023-01-31T16:04:34.017Z,0
2023-01-31T16:05:37.084Z,0
2023-01-31T16:07:43.907Z,0
2023-01-31T16:09:49.820Z,0
2023-01-31T16:10:53.315Z,0
2023-01-31T16:13:00.190Z,0
2023-01-31T16:15:07.497Z,0
2023-01-31T16:17:13.640Z,0
2023-01-31T16:18:32.186Z,0
2023-01-31T16:19:35.729Z,0
2023-01-31T16:20:39.175Z,0
2023-01-31T16:22:45.155Z,0
2023-01-31T16:23:48.762Z,0
2023-01-31T16:25:55.555Z,0
2023-01-31T16:28:02.612Z,0
2023-01-31T16:29:06.401Z,0
2023-01-31T16:30:09.518Z,0
2023-01-31T16:31:13.491Z,0
2023-01-31T16:33:20.134Z,0
2023-01-31T16:34:22.850Z,0
2023-01-31T16:35:27.097Z,0
2023-01-31T16:36:29.828Z,0
2023-01-31T16:38:36.623Z,0
2023-01-31T16:39:40.086Z,0
2023-01-31T16:41:47.414Z,0
2023-01-31T16:43:54.551Z,0
2023-01-31T16:46:01.251Z,0
2023-01-31T16:47:04.362Z,0
2023-01-31T16:49:11.435Z,0
2023-01-31T16:50:14.252Z,0
2023-01-31T16:51:17.359Z,0
2023-01-31T16:52:20.633Z,0
2023-01-31T16:53:24.450Z,0
2023-01-31T16:54:27.913Z,0
2023-01-31T16:55:31.556Z,0
2023-01-31T16:57:41.273Z,0
2023-01-31T16:58:45.283Z,0
2023-01-31T17:00:52.178Z,0
2023-01-31T17:02:59.704Z,0
2023-01-31T17:04:03.227Z,0
2023-01-31T17:06:10.733Z,0
2023-01-31T17:08:17.558Z,0
2023-01-31T17:09:20.921Z,0
2023-01-31T17:11:45.275Z,0
2023-01-31T17:13:52.637Z,0
2023-01-31T17:16:00.284Z,0
2023-01-31T17:17:23.353Z,0
2023-01-31T17:18:27.037Z,0
2023-01-31T17:19:31.599Z,0
2023-01-31T17:20:35.929Z,0
2023-01-31T17:21:39.148Z,0
2023-01-31T17:23:04.722Z,0
2023-01-31T17:24:07.876Z,0
2023-01-31T17:26:15.308Z,0
2023-01-31T17:28:22.834Z,0
2023-01-31T17:30:30.306Z,0
2023-01-31T17:31:33.873Z,0
2023-01-31T17:32:37.905Z,0
2023-01-31T17:33:40.991Z,0
2023-01-31T17:35:46.766Z,0
2023-01-31T17:36:50.856Z,0
2023-01-31T17:37:54.234Z,0
2023-01-31T17:38:57.317Z,0
2023-01-31T17:41:03.418Z,0
2023-01-31T17:42:06.840Z,0
2023-01-31T17:44:14.110Z,0
2023-01-31T17:46:20.823Z,0
2023-01-31T17:48:29.240Z,0
2023-01-31T17:49:32.279Z,0
2023-01-31T17:50:35.561Z,0
2023-01-31T17:51:39.644Z,0
2023-01-31T17:53:52.641Z,0
2023-01-31T17:55:58.375Z,0
2023-01-31T17:57:02.099Z,0
2023-01-31T17:59:29.047Z,0
2023-01-31T18:01:36.762Z,0
2023-01-31T18:03:44.757Z,0
2023-01-31T18:05:52.291Z,0
2023-01-31T18:06:55.372Z,0
2023-01-31T18:09:01.627Z,0
2023-01-31T18:11:08.611Z,0
2023-01-31T18:13:14.477Z,0
2023-01-31T18:14:17.989Z,0
2023-01-31T18:15:23.964Z,0
2023-01-31T18:16:28.013Z,0
2023-01-31T18:18:34.260Z,0
2023-01-31T18:19:37.327Z,0
2023-01-31T18:20:41.363Z,0
2023-01-31T18:21:57.565Z,0
2023-01-31T18:24:04.733Z,0
2023-01-31T18:26:11.809Z,0
2023-01-31T18:27:15.144Z,0
2023-01-31T18:28:18.414Z,0
2023-01-31T18:29:21.892Z,0
2023-01-31T18:31:29.922Z,0
2023-01-31T18:32:32.772Z,0
2023-01-31T18:33:36.874Z,0
2023-01-31T18:34:40.629Z,0
2023-01-31T18:36:47.280Z,0
2023-01-31T18:38:53.591Z,0
2023-01-31T18:39:57.037Z,0
2023-01-31T18:42:03.392Z,0
2023-01-31T18:44:10.256Z,0
2023-01-31T18:46:17.915Z,0
2023-01-31T18:47:21.610Z,0
2023-01-31T18:49:28.697Z,0
2023-01-31T18:51:36.024Z,0
2023-01-31T18:53:43.250Z,0
2023-01-31T18:54:46.606Z,0
2023-01-31T18:56:52.805Z,0
2023-01-31T18:58:59.506Z,0
2023-01-31T19:01:06.982Z,0
2023-01-31T19:02:10.839Z,0
2023-01-31T19:03:14.230Z,0
2023-01-31T19:04:17.631Z,0
2023-01-31T19:06:26.557Z,0
2023-01-31T19:07:29.473Z,0
2023-01-31T19:08:32.681Z,0
2023-01-31T19:09:35.913Z,0
2023-01-31T19:11:42.935Z,0
2023-01-31T19:13:49.246Z,0
2023-01-31T19:14:52.918Z,0
2023-01-31T19:16:59.554Z,0
2023-01-31T19:19:05.499Z,0
2023-01-31T19:21:12.544Z,0
2023-01-31T19:22:15.915Z,0
2023-01-31T19:24:21.915Z,0
2023-01-31T19:26:29.174Z,0
2023-01-31T19:28:36.918Z,0
2023-01-31T19:29:42.200Z,0
2023-01-31T19:31:49.280Z,0
2023-01-31T19:33:55.823Z,0
2023-01-31T19:36:03.367Z,0
2023-01-31T19:37:06.487Z,0
2023-01-31T19:39:12.397Z,0
2023-01-31T19:41:17.949Z,0
2023-01-31T19:43:23.143Z,0
2023-01-31T19:44:26.126Z,0
2023-01-31T19:46:32.890Z,0
2023-01-31T19:48:40.676Z,0
2023-01-31T19:50:47.011Z,0
2023-01-31T19:51:50.814Z,0
2023-01-31T19:52:54.177Z,0
2023-01-31T19:53:57.096Z,0
2023-01-31T19:56:03.432Z,0
2023-01-31T19:57:06.525Z,0
2023-01-31T19:58:10.177Z,0
2023-01-31T19:59:13.349Z,0
2023-01-31T20:01:20.065Z,0
2023-01-31T20:03:26.745Z,0
2023-01-31T20:04:29.841Z,0
2023-01-31T20:06:37.457Z,0
2023-01-31T20:08:44.344Z,0
2023-01-31T20:10:51.128Z,0
2023-01-31T20:11:53.837Z,0
2023-01-31T20:14:01.398Z,0
2023-01-31T20:16:08.387Z,0
2023-01-31T20:18:13.928Z,0
2023-01-31T20:19:21.036Z,0
2023-01-31T20:21:27.468Z,0
2023-01-31T20:23:33.183Z,0
2023-01-31T20:25:40.107Z,0
2023-01-31T20:26:43.369Z,0
2023-01-31T20:27:46.631Z,0
2023-01-31T20:28:50.658Z,0
2023-01-31T20:30:57.851Z,0
2023-01-31T20:32:01.142Z,0
2023-01-31T20:33:04.539Z,0
2023-01-31T20:34:08.013Z,0
2023-01-31T20:36:14.181Z,0
2023-01-31T20:38:20.552Z,0
2023-01-31T20:39:24.026Z,0
2023-01-31T20:40:27.705Z,0
2023-01-31T20:41:31.491Z,0
2023-01-31T20:43:38.655Z,0
2023-01-31T20:45:44.771Z,0
2023-01-31T20:47:51.586Z,0
2023-01-31T20:48:54.431Z,0
2023-01-31T20:51:00.267Z,0
2023-01-31T20:53:06.765Z,0
2023-01-31T20:55:11.789Z,0
2023-01-31T20:56:15.217Z,0
2023-01-31T20:58:22.951Z,0
2023-01-31T21:00:29.182Z,0
2023-01-31T21:02:36.393Z,0
2023-01-31T21:03:39.802Z,0
2023-01-31T21:05:45.944Z,0
2023-01-31T21:07:52.421Z,0
2023-01-31T21:09:58.506Z,0
2023-01-31T21:11:01.626Z,0
2023-01-31T21:13:08.572Z,0
2023-01-31T21:15:15.337Z,0
2023-01-31T21:17:42.234Z,0
2023-01-31T21:19:49.349Z,0
2023-01-31T21:20:52.636Z,0
2023-01-31T21:22:58.180Z,0
2023-01-31T21:25:04.787Z,0
2023-01-31T21:27:12.743Z,0
2023-01-31T21:28:16.491Z,0
2023-01-31T21:30:25.155Z,0
2023-01-31T21:32:32.442Z,0
2023-01-31T21:34:41.517Z,0
2023-01-31T21:35:44.770Z,0
2023-01-31T21:37:51.269Z,0
2023-01-31T21:39:57.511Z,0
2023-01-31T21:42:02.598Z,0
2023-01-31T21:43:05.801Z,0
2023-01-31T21:45:12.063Z,0
2023-01-31T21:47:19.044Z,0
2023-01-31T21:49:24.761Z,0
2023-01-31T21:50:28.167Z,0
2023-01-31T21:52:34.716Z,0
2023-01-31T21:54:40.805Z,0
2023-01-31T21:56:47.989Z,0
2023-01-31T21:57:51.676Z,0
2023-01-31T21:59:59.152Z,0
2023-01-31T22:02:04.963Z,0
2023-01-31T22:04:10.723Z,0
2023-01-31T22:05:13.734Z,0
2023-01-31T22:07:20.580Z,0
2023-01-31T22:09:27.077Z,0
2023-01-31T22:11:33.489Z,0
2023-01-31T22:12:37.274Z,0
2023-01-31T22:13:40.655Z,0
2023-01-31T22:14:43.508Z,0
2023-01-31T22:16:50.028Z,0
2023-01-31T22:17:53.616Z,0
2023-01-31T22:18:57.010Z,0
2023-01-31T22:20:00.288Z,0
2023-01-31T22:22:06.162Z,0
2023-01-31T22:23:09.535Z,0
2023-01-31T22:24:12.946Z,0
2023-01-31T22:25:16.701Z,0
2023-01-31T22:27:23.895Z,0
2023-01-31T22:29:35.736Z,0
2023-01-31T22:30:38.856Z,0
2023-01-31T22:32:47.477Z,0
2023-01-31T22:34:53.564Z,0
2023-01-31T22:36:59.668Z,0
2023-01-31T22:38:02.479Z,0
2023-01-31T22:40:09.174Z,0
2023-01-31T22:42:15.160Z,0
2023-01-31T22:44:21.637Z,0
2023-01-31T22:45:24.808Z,0
2023-01-31T22:47:32.439Z,0
2023-01-31T22:49:38.326Z,0
2023-01-31T22:50:41.046Z,0
2023-01-31T22:51:44.541Z,0
2023-01-31T22:52:48.602Z,0
2023-01-31T22:54:55.137Z,0
2023-01-31T22:55:58.775Z,0
2023-01-31T22:57:01.771Z,0
2023-01-31T22:58:04.885Z,0
2023-01-31T23:00:11.099Z,0
2023-01-31T23:01:14.530Z,0
2023-01-31T23:03:21.252Z,0
2023-01-31T23:05:27.222Z,0
2023-01-31T23:07:33.114Z,0
2023-01-31T23:08:37.210Z,0
2023-01-31T23:10:43.059Z,0
2023-01-31T23:12:49.412Z,0
2023-01-31T23:14:55.168Z,0
2023-01-31T23:15:58.341Z,0
2023-01-31T23:18:05.521Z,0
2023-01-31T23:20:11.084Z,0
2023-01-31T23:22:17.516Z,0
2023-01-31T23:23:20.396Z,0
2023-01-31T23:25:26.363Z,0
2023-01-31T23:27:33.466Z,0
2023-01-31T23:29:39.619Z,0
2023-01-31T23:30:42.664Z,0
2023-01-31T23:32:49.400Z,0
2023-01-31T23:34:56.817Z,0
2023-01-31T23:37:03.700Z,0
2023-01-31T23:38:06.778Z,0
2023-01-31T23:40:12.432Z,0
2023-01-31T23:42:18.381Z,0
2023-01-31T23:43:21.514Z,0
2023-01-31T23:44:25.454Z,0
2023-01-31T23:45:28.738Z,0
2023-01-31T23:47:36.361Z,0
2023-01-31T23:49:43.573Z,0